< < Back
Terminal Aerodrome Forecast


Current Version              Previous Versions:   1  2  3  4  5  6  7  8  9  

Terminal Aerodrome Forecast

353
FTUS44 KHUN 052023 AAB
TAFHSV
TAF AMD
KHSV 052023Z 0520/0618 36012G20KT P6SM OVC015
     FM052100 36012G18KT P6SM BKN020
     FM060000 36010KT P6SM SCT050
     FM060900 01006KT P6SM SCT050=

Latest METAR

287
SAUS80 KWBC 061400
MTRHSV
METAR KHSV 061353Z 04006KT 10SM CLR M06/M11 A3054 RMK AO2 SLP348
T10561106 $


USA.gov is the U.S. government's official web portal to all federal, state and local government web resources and services.